createdAt,value
2023-08-01T00:00:21.480Z,66.16
2023-08-01T00:03:24.338Z,65.64
2023-08-01T00:06:27.417Z,65.91
2023-08-01T00:09:30.274Z,66.08
2023-08-01T00:12:34.970Z,66.00
2023-08-01T00:15:38.105Z,65.59
2023-08-01T00:18:40.891Z,65.28
2023-08-01T00:21:43.774Z,65.24
2023-08-01T00:24:48.643Z,65.75
2023-08-01T00:27:52.986Z,65.58
2023-08-01T00:31:03.468Z,66.10
2023-08-01T00:34:06.285Z,66.41
2023-08-01T00:37:09.056Z,65.94
2023-08-01T00:40:12.300Z,65.92
2023-08-01T00:43:16.547Z,65.79
2023-08-01T00:46:19.832Z,65.34
2023-08-01T00:49:22.703Z,65.10
2023-08-01T00:52:25.603Z,65.30
2023-08-01T00:55:29.795Z,65.64
2023-08-01T01:01:36.544Z,65.46
2023-08-01T01:04:39.471Z,65.50
2023-08-01T01:07:42.634Z,65.45
2023-08-01T01:10:45.463Z,65.46
2023-08-01T01:13:48.300Z,65.17
2023-08-01T01:16:52.902Z,65.76
2023-08-01T01:19:56.164Z,65.93
2023-08-01T01:23:00.607Z,65.68
2023-08-01T01:26:03.783Z,65.61
2023-08-01T01:29:09.786Z,65.22
2023-08-01T01:32:12.770Z,65.29
2023-08-01T01:35:15.726Z,64.71
2023-08-01T01:38:19.862Z,64.22
2023-08-01T01:41:23.569Z,63.76
2023-08-01T01:44:26.434Z,63.93
2023-08-01T01:47:29.300Z,63.79
2023-08-01T01:50:32.161Z,63.65
2023-08-01T01:53:36.490Z,63.84
2023-08-01T01:56:39.543Z,64.05
2023-08-01T01:59:42.607Z,63.57
2023-08-01T02:02:45.521Z,63.80
2023-08-01T02:05:48.374Z,63.74
2023-08-01T02:08:52.584Z,63.77
2023-08-01T02:11:55.427Z,63.67
2023-08-01T02:14:58.216Z,63.40
2023-08-01T02:18:01.068Z,63.52
2023-08-01T02:21:03.910Z,63.35
2023-08-01T02:24:08.131Z,63.53
2023-08-01T02:27:10.902Z,63.57
2023-08-01T02:30:13.861Z,63.36
2023-08-01T02:33:16.720Z,63.57
2023-08-01T02:36:19.757Z,63.26
2023-08-01T02:39:23.959Z,63.27
2023-08-01T02:42:26.790Z,63.15
2023-08-01T02:45:29.682Z,63.21
2023-08-01T02:48:33.483Z,63.27
2023-08-01T02:51:36.271Z,63.14
2023-08-01T02:54:40.493Z,63.39
2023-08-01T02:57:43.265Z,63.27
2023-08-01T03:00:46.109Z,63.28
2023-08-01T03:03:49.033Z,63.34
2023-08-01T03:06:51.936Z,63.15
2023-08-01T03:09:56.489Z,62.92
2023-08-01T03:12:59.975Z,63.31
2023-08-01T03:16:02.856Z,63.09
2023-08-01T03:19:06.479Z,63.44
2023-08-01T03:22:09.719Z,63.17
2023-08-01T03:25:14.009Z,63.16
2023-08-01T03:28:16.907Z,63.16
2023-08-01T03:31:19.804Z,63.42
2023-08-01T03:34:22.733Z,63.38
2023-08-01T03:37:25.615Z,63.61
2023-08-01T03:40:29.943Z,63.44
2023-08-01T03:43:32.782Z,63.35
2023-08-01T03:46:35.519Z,63.78
2023-08-01T03:49:39.827Z,63.87
2023-08-01T03:52:42.780Z,64.01
2023-08-01T03:55:48.878Z,64.02
2023-08-01T03:58:51.731Z,64.02
2023-08-01T04:01:54.537Z,64.07
2023-08-01T04:04:57.384Z,64.02
2023-08-01T04:08:00.278Z,64.15
2023-08-01T04:11:04.535Z,64.06
2023-08-01T04:14:07.373Z,63.99
2023-08-01T04:17:10.211Z,63.97
2023-08-01T04:20:13.805Z,64.09
2023-08-01T04:23:16.688Z,64.49
2023-08-01T04:26:20.847Z,64.76
2023-08-01T04:29:23.686Z,64.44
2023-08-01T04:32:26.473Z,64.36
2023-08-01T04:35:29.375Z,64.60
2023-08-01T04:38:32.183Z,64.68
2023-08-01T04:41:36.383Z,64.64
2023-08-01T04:44:39.374Z,64.43
2023-08-01T04:47:42.161Z,64.94
2023-08-01T04:50:45.020Z,64.44
2023-08-01T04:53:47.829Z,64.64
2023-08-01T04:56:52.103Z,64.49
2023-08-01T04:59:54.957Z,64.96
2023-08-01T05:02:57.938Z,64.81
2023-08-01T05:06:00.779Z,64.82
2023-08-01T05:09:04.020Z,64.84
2023-08-01T05:12:10.145Z,64.14
2023-08-01T05:15:14.040Z,64.57
2023-08-01T05:18:18.115Z,64.79
2023-08-01T05:21:20.854Z,64.88
2023-08-01T05:24:23.682Z,64.91
2023-08-01T05:27:27.808Z,64.92
2023-08-01T05:30:30.597Z,64.32
2023-08-01T05:33:33.442Z,62.89
2023-08-01T05:36:36.553Z,63.97
2023-08-01T05:39:39.379Z,63.16
2023-08-01T05:42:43.587Z,63.16
2023-08-01T05:45:46.382Z,63.71
2023-08-01T05:48:49.265Z,63.39
2023-08-01T05:51:52.108Z,63.34
2023-08-01T05:54:54.919Z,62.85
2023-08-01T05:57:59.400Z,62.59
2023-08-01T06:01:02.338Z,62.52
2023-08-01T06:04:05.508Z,63.09
2023-08-01T06:07:11.285Z,62.72
2023-08-01T06:10:14.078Z,62.85
2023-08-01T06:13:18.368Z,62.74
2023-08-01T06:16:21.288Z,62.77
2023-08-01T06:19:24.063Z,62.76
2023-08-01T06:22:26.868Z,62.90
2023-08-01T06:25:29.667Z,62.25
2023-08-01T06:28:33.934Z,62.44
2023-08-01T06:31:36.845Z,62.05
2023-08-01T06:34:39.689Z,61.96
2023-08-01T06:37:42.554Z,62.37
2023-08-01T06:40:45.457Z,62.28
2023-08-01T06:43:49.705Z,62.49
2023-08-01T06:46:52.538Z,62.49
2023-08-01T06:49:55.320Z,62.37
2023-08-01T06:52:58.316Z,62.54
2023-08-01T06:56:01.106Z,62.00
2023-08-01T06:59:05.286Z,62.14
2023-08-01T07:02:08.248Z,62.09
2023-08-01T07:05:11.160Z,62.31
2023-08-01T07:08:14.125Z,62.03
2023-08-01T07:11:16.896Z,62.31
2023-08-01T07:14:21.028Z,62.38
2023-08-01T07:17:23.833Z,61.91
2023-08-01T07:20:27.696Z,62.37
2023-08-01T07:23:30.576Z,62.10
2023-08-01T07:26:33.481Z,61.98
2023-08-01T07:29:37.673Z,61.73
2023-08-01T07:32:40.577Z,62.00
2023-08-01T07:35:43.570Z,61.80
2023-08-01T07:38:46.450Z,61.83
2023-08-01T07:41:49.242Z,62.33
2023-08-01T07:44:53.431Z,62.49
2023-08-01T07:47:56.303Z,62.30
2023-08-01T07:50:59.166Z,62.45
2023-08-01T07:54:02.191Z,62.14
2023-08-01T07:57:05.286Z,62.30
2023-08-01T08:00:11.030Z,62.15
2023-08-01T08:03:14.019Z,62.39
2023-08-01T08:06:16.914Z,62.51
2023-08-01T08:09:19.815Z,62.51
2023-08-01T08:12:22.705Z,62.51
2023-08-01T08:15:27.331Z,62.59
2023-08-01T08:18:30.275Z,62.13
2023-08-01T08:21:33.211Z,62.36
2023-08-01T08:24:37.664Z,62.41
2023-08-01T08:27:41.558Z,62.35
2023-08-01T08:30:47.857Z,62.53
2023-08-01T08:33:50.725Z,62.26
2023-08-01T08:36:54.307Z,62.40
2023-08-01T08:39:57.204Z,62.42
2023-08-01T08:43:00.973Z,62.40
2023-08-01T08:46:05.724Z,62.21
2023-08-01T08:49:09.555Z,61.88
2023-08-01T08:52:13.112Z,62.03
2023-08-01T08:55:16.026Z,62.13
2023-08-01T08:58:19.486Z,62.01
2023-08-01T09:01:23.829Z,61.18
2023-08-01T09:04:26.677Z,61.33
2023-08-01T09:07:31.710Z,61.76
2023-08-01T09:10:34.665Z,61.07
2023-08-01T09:13:37.535Z,61.67
2023-08-01T09:16:42.123Z,61.70
2023-08-01T09:19:45.189Z,61.83
2023-08-01T09:22:48.752Z,61.54
2023-08-01T09:25:52.618Z,61.18
2023-08-01T09:28:58.606Z,61.85
2023-08-01T09:32:13.311Z,61.06
2023-08-01T09:35:16.212Z,61.28
2023-08-01T09:38:19.116Z,61.44
2023-08-01T09:41:22.513Z,61.76
2023-08-01T09:44:25.361Z,61.24
2023-08-01T09:47:37.662Z,60.79
2023-08-01T09:50:40.594Z,60.81
2023-08-01T09:53:50.527Z,60.69
2023-08-01T09:56:54.643Z,61.16
2023-08-01T09:59:58.169Z,60.85
2023-08-01T10:03:02.737Z,60.73
2023-08-01T10:06:06.033Z,60.51
2023-08-01T10:09:12.361Z,60.84
2023-08-01T10:12:15.288Z,60.92
2023-08-01T10:15:18.634Z,61.06
2023-08-01T10:18:22.956Z,60.81
2023-08-01T10:21:27.627Z,61.01
2023-08-01T10:24:31.336Z,61.67
2023-08-01T10:27:36.116Z,61.39
2023-08-01T10:30:38.978Z,61.15
2023-08-01T10:33:44.129Z,61.44
2023-08-01T10:36:55.548Z,61.08
2023-08-01T10:39:59.060Z,62.36
2023-08-01T10:43:01.929Z,61.10
2023-08-01T10:46:04.968Z,60.68
2023-08-01T10:49:09.382Z,60.97
2023-08-01T10:52:18.687Z,61.20
2023-08-01T10:55:21.554Z,61.08
2023-08-01T10:58:28.734Z,60.77
2023-08-01T11:01:32.014Z,61.08
2023-08-01T11:04:36.373Z,61.08
2023-08-01T11:07:39.249Z,60.81
2023-08-01T11:10:42.149Z,61.08
2023-08-01T11:13:52.148Z,61.10
2023-08-01T11:16:56.688Z,60.95
2023-08-01T11:20:05.505Z,61.09
2023-08-01T11:23:09.255Z,61.12
2023-08-01T11:26:13.097Z,61.02
2023-08-01T11:29:16.239Z,60.94
2023-08-01T11:32:19.025Z,60.72
2023-08-01T11:35:23.298Z,60.69
2023-08-01T11:38:27.827Z,61.04
2023-08-01T11:41:31.134Z,60.67
2023-08-01T11:44:34.243Z,60.70
2023-08-01T11:47:37.297Z,61.44
2023-08-01T11:50:41.573Z,61.05
2023-08-01T11:53:44.385Z,61.42
2023-08-01T11:56:47.264Z,61.03
2023-08-01T11:59:51.264Z,60.61
2023-08-01T12:02:54.171Z,60.79
2023-08-01T12:06:05.895Z,60.55
2023-08-01T12:09:09.773Z,60.71
2023-08-01T12:12:12.655Z,60.94
2023-08-01T12:15:15.899Z,60.75
2023-08-01T12:21:32.125Z,61.41
2023-08-01T12:24:38.171Z,60.86
2023-08-01T12:27:40.952Z,60.85
2023-08-01T12:30:44.207Z,60.78
2023-08-01T12:33:47.118Z,61.35
2023-08-01T12:36:51.410Z,60.91
2023-08-01T12:39:55.500Z,60.67
2023-08-01T12:42:58.952Z,60.52
2023-08-01T12:46:02.044Z,60.58
2023-08-01T12:49:04.914Z,61.29
2023-08-01T12:52:09.300Z,60.65
2023-08-01T12:55:12.074Z,61.16
2023-08-01T12:58:15.291Z,60.64
2023-08-01T13:01:18.180Z,60.97
2023-08-01T13:04:21.053Z,60.91
2023-08-01T13:07:25.274Z,60.55
2023-08-01T13:10:28.072Z,60.40
2023-08-01T13:13:30.823Z,60.59
2023-08-01T13:16:33.673Z,60.48
2023-08-01T13:19:36.523Z,60.42
2023-08-01T13:22:40.704Z,60.63
2023-08-01T13:25:44.236Z,60.39
2023-08-01T13:28:47.062Z,60.06
2023-08-01T13:31:52.262Z,60.60
2023-08-01T13:34:55.376Z,60.02
2023-08-01T13:37:59.498Z,60.28
2023-08-01T13:41:02.597Z,60.48
2023-08-01T13:44:05.585Z,60.32
2023-08-01T13:47:08.418Z,60.59
2023-08-01T13:50:11.579Z,59.94
2023-08-01T13:53:15.844Z,60.41
2023-08-01T13:56:18.700Z,60.57
2023-08-01T13:59:21.569Z,61.26
2023-08-01T14:02:25.693Z,61.13
2023-08-01T14:05:28.777Z,60.38
2023-08-01T14:08:32.975Z,60.20
2023-08-01T14:11:35.787Z,60.31
2023-08-01T14:14:40.629Z,60.23
2023-08-01T14:17:43.559Z,60.08
2023-08-01T14:20:46.376Z,60.36
2023-08-01T14:23:50.575Z,60.04
2023-08-01T14:26:53.435Z,60.37
2023-08-01T14:29:56.333Z,60.37
2023-08-01T14:33:01.447Z,60.25
2023-08-01T14:36:04.442Z,60.44
2023-08-01T14:39:16.970Z,60.43
2023-08-01T14:42:25.041Z,60.18
2023-08-01T14:45:27.847Z,60.21
2023-08-01T14:48:30.737Z,59.99
2023-08-01T14:51:33.530Z,60.09
2023-08-01T14:54:41.287Z,59.91
2023-08-01T14:57:44.441Z,60.19
2023-08-01T15:00:47.536Z,60.13
2023-08-01T15:03:51.546Z,60.24
2023-08-01T15:06:54.535Z,60.19
2023-08-01T15:09:58.883Z,60.10
2023-08-01T15:13:01.773Z,60.27
2023-08-01T15:16:04.693Z,60.28
2023-08-01T15:19:07.515Z,60.20
2023-08-01T15:22:10.395Z,60.08
2023-08-01T15:25:14.612Z,60.19
2023-08-01T15:28:17.411Z,59.89
2023-08-01T15:31:20.260Z,60.44
2023-08-01T15:34:23.049Z,60.25
2023-08-01T15:37:25.913Z,59.93
2023-08-01T15:40:30.131Z,59.99
2023-08-01T15:43:32.949Z,60.12
2023-08-01T15:46:35.895Z,60.10
2023-08-01T15:49:40.112Z,60.05
2023-08-01T15:52:44.067Z,60.08
2023-08-01T15:55:48.296Z,59.97
2023-08-01T15:58:51.231Z,59.85
2023-08-01T16:01:54.174Z,60.04
2023-08-01T16:04:57.023Z,60.05
2023-08-01T16:08:00.105Z,59.90
2023-08-01T16:11:04.420Z,59.90
2023-08-01T16:14:07.256Z,60.09
2023-08-01T16:17:10.067Z,60.02
2023-08-01T16:20:13.378Z,59.76
2023-08-01T16:23:16.232Z,59.87
2023-08-01T16:26:20.439Z,59.96
2023-08-01T16:29:23.295Z,60.11
2023-08-01T16:32:26.134Z,59.98
2023-08-01T16:35:28.973Z,60.12
2023-08-01T16:38:31.857Z,60.38
2023-08-01T16:41:36.153Z,60.05
2023-08-01T16:44:38.958Z,60.73
2023-08-01T16:47:43.824Z,60.81
2023-08-01T16:50:47.078Z,60.46
2023-08-01T16:53:49.838Z,61.16
2023-08-01T16:56:54.033Z,60.76
2023-08-01T16:59:56.894Z,60.84
2023-08-01T17:02:59.958Z,61.09
2023-08-01T17:06:02.912Z,61.18
2023-08-01T17:09:10.118Z,61.21
2023-08-01T17:12:15.809Z,61.22
2023-08-01T17:15:19.796Z,61.58
2023-08-01T17:18:22.592Z,61.47
2023-08-01T17:21:26.429Z,61.09
2023-08-01T17:24:29.212Z,60.78
2023-08-01T17:27:33.365Z,61.05
2023-08-01T17:30:36.236Z,61.30
2023-08-01T17:33:39.119Z,61.27
2023-08-01T17:36:42.212Z,61.06
2023-08-01T17:39:45.095Z,61.10
2023-08-01T17:42:52.613Z,60.98
2023-08-01T17:45:55.491Z,60.86
2023-08-01T17:48:58.295Z,60.86
2023-08-01T17:52:01.184Z,61.32
2023-08-01T17:55:04.075Z,61.16
2023-08-01T17:58:08.213Z,60.96
2023-08-01T18:01:11.217Z,60.96
2023-08-01T18:04:14.066Z,61.10
2023-08-01T18:07:16.861Z,60.93
2023-08-01T18:10:19.791Z,61.11
2023-08-01T18:13:25.644Z,61.00
2023-08-01T18:16:28.531Z,61.07
2023-08-01T18:19:31.453Z,61.33
2023-08-01T18:22:34.254Z,61.47
2023-08-01T18:25:37.067Z,61.63
2023-08-01T18:28:41.300Z,61.45
2023-08-01T18:31:44.156Z,61.48
2023-08-01T18:34:47.138Z,61.36
2023-08-01T18:37:49.994Z,61.81
2023-08-01T18:40:52.786Z,61.63
2023-08-01T18:43:57.008Z,61.58
2023-08-01T18:46:59.858Z,61.31
2023-08-01T18:50:02.756Z,61.48
2023-08-01T18:53:05.664Z,61.62
2023-08-01T18:56:12.416Z,61.35
2023-08-01T18:59:17.504Z,61.63
2023-08-01T19:02:20.348Z,61.16
2023-08-01T19:05:23.633Z,61.46
2023-08-01T19:08:26.474Z,61.17
2023-08-01T19:11:31.485Z,61.10
2023-08-01T19:14:35.701Z,60.94
2023-08-01T19:17:38.655Z,61.02
2023-08-01T19:20:41.437Z,60.90
2023-08-01T19:23:44.240Z,61.01
2023-08-01T19:26:46.991Z,60.83
2023-08-01T19:29:51.812Z,60.99
2023-08-01T19:32:54.676Z,60.79
2023-08-01T19:35:57.515Z,60.95
2023-08-01T19:39:00.328Z,60.84
2023-08-01T19:42:03.179Z,61.15
2023-08-01T19:45:08.838Z,60.84
2023-08-01T19:48:12.435Z,60.84
2023-08-01T19:51:16.050Z,60.80
2023-08-01T19:54:18.906Z,61.12
2023-08-01T19:57:21.765Z,60.83
2023-08-01T20:00:27.015Z,60.71
2023-08-01T20:03:30.611Z,60.86
2023-08-01T20:06:33.751Z,61.18
2023-08-01T20:09:36.703Z,60.80
2023-08-01T20:12:39.559Z,60.82
2023-08-01T20:15:43.802Z,61.05
2023-08-01T20:18:46.680Z,60.84
2023-08-01T20:21:49.513Z,61.38
2023-08-01T20:24:52.353Z,61.61
2023-08-01T20:27:56.180Z,61.99
2023-08-01T20:31:03.746Z,62.22
2023-08-01T20:34:08.672Z,62.21
2023-08-01T20:37:11.605Z,62.98
2023-08-01T20:40:14.551Z,62.89
2023-08-01T20:43:17.399Z,62.76
2023-08-01T20:46:21.821Z,62.00
2023-08-01T20:49:24.685Z,62.62
2023-08-01T20:52:27.491Z,62.95
2023-08-01T20:55:30.290Z,62.41
2023-08-01T20:58:34.255Z,62.31
2023-08-01T21:01:38.534Z,62.41
2023-08-01T21:04:41.419Z,61.90
2023-08-01T21:07:44.346Z,62.36
2023-08-01T21:10:47.182Z,62.70
2023-08-01T21:13:50.076Z,62.64
2023-08-01T21:16:54.244Z,63.04
2023-08-01T21:19:57.261Z,62.45
2023-08-01T21:23:00.094Z,62.68
2023-08-01T21:26:02.948Z,62.47
2023-08-01T21:29:05.871Z,62.38
2023-08-01T21:32:10.479Z,62.65
2023-08-01T21:35:13.371Z,62.56
2023-08-01T21:38:16.150Z,62.13
2023-08-01T21:41:19.197Z,62.60
2023-08-01T21:44:22.020Z,62.50
2023-08-01T21:47:26.324Z,62.53
2023-08-01T21:50:29.333Z,62.72
2023-08-01T21:53:32.275Z,63.10
2023-08-01T21:56:35.143Z,62.51
2023-08-01T21:59:38.019Z,62.81
2023-08-01T22:02:42.812Z,62.25
2023-08-01T22:05:45.744Z,62.05
2023-08-01T22:08:48.509Z,62.72
2023-08-01T22:11:51.343Z,62.95
2023-08-01T22:14:54.689Z,63.18
2023-08-01T22:17:58.930Z,63.05
2023-08-01T22:21:01.733Z,62.87
2023-08-01T22:24:04.562Z,62.54
2023-08-01T22:27:08.033Z,62.44
2023-08-01T22:30:11.917Z,62.47
2023-08-01T22:33:16.273Z,61.92
2023-08-01T22:36:19.122Z,61.86
2023-08-01T22:39:21.934Z,61.81
2023-08-01T22:42:24.720Z,62.00
2023-08-01T22:45:27.589Z,61.50
2023-08-01T22:48:31.816Z,61.38
2023-08-01T22:51:34.728Z,61.70
2023-08-01T22:54:37.675Z,61.22
2023-08-01T22:57:40.484Z,61.24
2023-08-01T23:00:43.669Z,61.43
2023-08-01T23:03:48.126Z,61.35
2023-08-01T23:06:50.993Z,60.87
2023-08-01T23:09:55.162Z,61.09
2023-08-01T23:12:58.032Z,61.11
2023-08-01T23:16:00.928Z,61.18
2023-08-01T23:19:05.136Z,61.02
2023-08-01T23:22:08.881Z,61.15
2023-08-01T23:25:11.780Z,62.08
2023-08-01T23:28:14.618Z,62.45
2023-08-01T23:31:17.546Z,61.83
2023-08-01T23:34:21.761Z,62.45
2023-08-01T23:37:24.610Z,62.62
2023-08-01T23:40:29.263Z,63.21
2023-08-01T23:43:32.128Z,64.02
2023-08-01T23:46:35.095Z,64.75
2023-08-01T23:49:39.283Z,65.78
2023-08-01T23:52:44.285Z,65.38
2023-08-01T23:55:48.419Z,65.35
2023-08-01T23:58:51.647Z,64.76
